PWSweather.com
Personal Weather Stations
Station Observations

MakarauRodneyNZ

Lat: -36.52421, Lon: 174.47572

Elevation: 606

Station Type: Davis VP2

http://kaiparaweather.dynu.net/index.php

Latest ConditionsUpdated 11:40:01 PM GMT+12:12 Friday, Apr 19, 2019
Currently Today's Max Today's Min Today's Average
Temperature 56.5°F13.6°C 68.8°F20.4°C 54.6°F12.6°C 60.1°F15.6°C
Dew Point 51.4°F10.8°C 56.3°F13.5°C 49.6°F9.8°C 52.3°F11.3°C
Winds Calm Calm 5.8 mph -9.3 kmh - - 0.3 mph 0.5 kmh
Wind Gusts -- 8.1 mph13.0 kmh - -
Humidity 83% 87% 60% 76%
Pressure 30.45 in1031.2 mb 30.55 in1034.5 mb 30.44 in1030.8 mb -
Hour Temp Dew Point Humidity Winds Wind Gusts Pressure Precip Precip Rate Daily Precip Total
11:40 PM 56.5°F13.6°C 51.4°F10.8°C 83% Calm Calm -- 30.45 in1031.2 mb - 0.00 in0.0 mm 0.00 in0.0 mm
11:30 PM 56.1°F13.4°C 50.6°F10.3°C 82% Calm Calm -- 30.45 in1031.2 mb - 0.00 in0.0 mm 0.00 in0.0 mm
11:20 PM 55.9°F13.3°C 50.5°F10.3°C 82% Calm Calm -- 30.45 in1031.2 mb - 0.00 in0.0 mm 0.00 in0.0 mm
11:10 PM 55.9°F13.3°C 50.1°F10.1°C 81% Calm Calm -- 30.46 in1031.5 mb - 0.00 in0.0 mm 0.00 in0.0 mm
11:00 PM 55.9°F13.3°C 50.1°F10.1°C 81% Calm Calm -- 30.46 in1031.5 mb - 0.00 in0.0 mm 0.00 in0.0 mm
10:50 PM 56.0°F13.3°C 49.9°F9.9°C 80% Calm Calm -- 30.46 in1031.5 mb - 0.00 in0.0 mm 0.00 in0.0 mm
10:40 PM 56.1°F13.4°C 49.6°F9.8°C 79% Calm Calm -- 30.46 in1031.5 mb - 0.00 in0.0 mm 0.00 in0.0 mm
10:30 PM 56.2°F13.4°C 49.8°F9.9°C 79% Calm Calm -- 30.46 in1031.5 mb - 0.00 in0.0 mm 0.00 in0.0 mm
10:20 PM 56.3°F13.5°C 49.9°F9.9°C 79% Calm Calm -- 30.46 in1031.5 mb - 0.00 in0.0 mm 0.00 in0.0 mm
10:10 PM 56.3°F13.5°C 49.9°F9.9°C 79% Calm Calm -- 30.46 in1031.5 mb - 0.00 in0.0 mm 0.00 in0.0 mm
10:00 PM 56.3°F13.5°C 49.8°F9.9°C 79% Calm Calm -- 30.46 in1031.5 mb - 0.00 in0.0 mm 0.00 in0.0 mm
09:50 PM 56.4°F13.6°C 50.0°F10.0°C 79% Calm Calm -- 30.46 in1031.5 mb - 0.00 in0.0 mm 0.00 in0.0 mm
09:40 PM 56.6°F13.7°C 49.8°F9.9°C 78% Calm Calm -- 30.46 in1031.5 mb - 0.00 in0.0 mm 0.00 in0.0 mm
09:30 PM 56.9°F13.8°C 50.1°F10.1°C 78% Calm Calm -- 30.46 in1031.5 mb - 0.00 in0.0 mm 0.00 in0.0 mm
09:20 PM 57.1°F13.9°C 50.3°F10.2°C 78% Calm Calm -- 30.47 in1031.8 mb - 0.00 in0.0 mm 0.00 in0.0 mm
09:10 PM 57.4°F14.1°C 50.5°F10.3°C 78% Calm Calm -- 30.46 in1031.5 mb - 0.00 in0.0 mm 0.00 in0.0 mm
09:00 PM 57.4°F14.1°C 50.2°F10.1°C 77% Calm Calm -- 30.46 in1031.5 mb - 0.00 in0.0 mm 0.00 in0.0 mm
08:50 PM 57.5°F14.2°C 50.3°F10.2°C 77% Calm Calm -- 30.46 in1031.5 mb - 0.00 in0.0 mm 0.00 in0.0 mm
08:40 PM 57.7°F14.3°C 50.2°F10.1°C 76% Calm Calm -- 30.46 in1031.5 mb - 0.00 in0.0 mm 0.00 in0.0 mm
08:30 PM 57.9°F14.4°C 50.4°F10.2°C 76% Calm Calm -- 30.46 in1031.5 mb - 0.00 in0.0 mm 0.00 in0.0 mm
08:20 PM 58.2°F14.6°C 50.6°F10.3°C 76% Calm Calm -- 30.46 in1031.5 mb - 0.00 in0.0 mm 0.00 in0.0 mm
08:10 PM 58.2°F14.6°C 50.7°F10.4°C 76% Calm Calm -- 30.46 in1031.5 mb - 0.00 in0.0 mm 0.00 in0.0 mm
08:00 PM 58.3°F14.6°C 50.4°F10.2°C 75% Calm Calm -- 30.46 in1031.5 mb - 0.00 in0.0 mm 0.00 in0.0 mm
07:50 PM 58.4°F14.7°C 50.5°F10.3°C 75% Calm Calm -- 30.46 in1031.5 mb - 0.00 in0.0 mm 0.00 in0.0 mm
07:40 PM 58.4°F14.7°C 50.5°F10.3°C 75% Calm Calm -- 30.45 in1031.2 mb - 0.00 in0.0 mm 0.00 in0.0 mm
07:30 PM 58.4°F14.7°C 50.5°F10.3°C 75% Calm Calm -- 30.46 in1031.5 mb - 0.00 in0.0 mm 0.00 in0.0 mm
07:20 PM 58.3°F14.6°C 50.4°F10.2°C 75% Calm Calm -- 30.46 in1031.5 mb - 0.00 in0.0 mm 0.00 in0.0 mm
07:10 PM 58.2°F14.6°C 50.3°F10.2°C 75% Calm Calm -- 30.46 in1031.5 mb - 0.00 in0.0 mm 0.00 in0.0 mm
07:00 PM 58.4°F14.7°C 50.5°F10.3°C 75% Calm Calm -- 30.46 in1031.5 mb - 0.00 in0.0 mm 0.00 in0.0 mm
06:50 PM 58.9°F14.9°C 50.6°F10.3°C 74% Calm Calm -- 30.45 in1031.2 mb - 0.00 in0.0 mm 0.00 in0.0 mm
06:40 PM 59.5°F15.3°C 50.8°F10.4°C 73% Calm Calm -- 30.45 in1031.2 mb - 0.00 in0.0 mm 0.00 in0.0 mm
06:30 PM 60.1°F15.6°C 51.1°F10.6°C 72% Calm Calm -- 30.45 in1031.2 mb - 0.00 in0.0 mm 0.00 in0.0 mm
06:20 PM 60.9°F16.1°C 51.4°F10.8°C 71% Calm Calm -- 30.45 in1031.2 mb - 0.00 in0.0 mm 0.00 in0.0 mm
06:10 PM 61.7°F16.5°C 51.4°F10.8°C 69% Calm Calm -- 30.45 in1031.2 mb - 0.00 in0.0 mm 0.00 in0.0 mm
06:00 PM 62.7°F17.1°C 51.5°F10.8°C 67% Calm Calm -- 30.45 in1031.2 mb - 0.00 in0.0 mm 0.00 in0.0 mm
05:50 PM 63.9°F17.7°C 51.9°F11.1°C 65% Calm Calm -- 30.45 in1031.2 mb - 0.00 in0.0 mm 0.00 in0.0 mm
05:40 PM 64.6°F18.1°C 53.0°F11.7°C 66% Calm Calm -- 30.45 in1031.2 mb - 0.00 in0.0 mm 0.00 in0.0 mm
05:30 PM 65.1°F18.4°C 53.0°F11.7°C 65% Calm Calm -- 30.45 in1031.2 mb - 0.00 in0.0 mm 0.00 in0.0 mm
05:20 PM 65.5°F18.6°C 53.4°F11.9°C 65% Calm Calm -- 30.44 in1030.8 mb - 0.00 in0.0 mm 0.00 in0.0 mm
05:10 PM 66.2°F19.0°C 53.6°F12.0°C 64% Calm Calm -- 30.44 in1030.8 mb - 0.00 in0.0 mm 0.00 in0.0 mm
05:00 PM 66.5°F19.2°C 53.5°F11.9°C 63% Calm Calm -- 30.44 in1030.8 mb - 0.00 in0.0 mm 0.00 in0.0 mm
04:50 PM 66.7°F19.3°C 52.9°F11.6°C 61% Calm Calm -- 30.44 in1030.8 mb - 0.00 in0.0 mm 0.00 in0.0 mm
04:40 PM 66.7°F19.3°C 53.3°F11.8°C 62% Calm Calm -- 30.44 in1030.8 mb - 0.00 in0.0 mm 0.00 in0.0 mm
04:30 PM 66.9°F19.4°C 53.0°F11.7°C 61% Calm Calm -- 30.45 in1031.2 mb - 0.00 in0.0 mm 0.00 in0.0 mm
04:20 PM 67.4°F19.7°C 53.0°F11.7°C 60% Calm Calm -- 30.45 in1031.2 mb - 0.00 in0.0 mm 0.00 in0.0 mm
04:10 PM 67.5°F19.7°C 54.0°F12.2°C 62% Calm Calm 1.2 mph1.9 kmh 30.45 in1031.2 mb - 0.00 in0.0 mm 0.00 in0.0 mm
04:00 PM 67.6°F19.8°C 54.6°F12.6°C 63% Calm Calm -- 30.45 in1031.2 mb - 0.00 in0.0 mm 0.00 in0.0 mm
03:50 PM 67.7°F19.8°C 53.8°F12.1°C 61% Calm Calm -- 30.45 in1031.2 mb - 0.00 in0.0 mm 0.00 in0.0 mm
03:40 PM 67.9°F19.9°C 54.0°F12.2°C 61% Calm Calm 1.2 mph1.9 kmh 30.45 in1031.2 mb - 0.00 in0.0 mm 0.00 in0.0 mm
03:30 PM 68.0°F20.0°C 54.5°F12.5°C 62% Calm Calm -- 30.45 in1031.2 mb - 0.00 in0.0 mm 0.00 in0.0 mm
03:20 PM 67.8°F19.9°C 54.7°F12.6°C 63% Calm Calm -- 30.45 in1031.2 mb - 0.00 in0.0 mm 0.00 in0.0 mm
03:10 PM 67.9°F19.9°C 54.0°F12.2°C 61% 1.2 mph NE1.9 kmh NE 4.6 mph7.4 kmh 30.45 in1031.2 mb - 0.00 in0.0 mm 0.00 in0.0 mm
03:00 PM 68.3°F20.2°C 55.2°F12.9°C 63% Calm Calm 1.2 mph1.9 kmh 30.45 in1031.2 mb - 0.00 in0.0 mm 0.00 in0.0 mm
02:50 PM 68.8°F20.4°C 55.2°F12.9°C 62% 1.2 mph ENE1.9 kmh ENE 3.5 mph5.6 kmh 30.46 in1031.5 mb - 0.00 in0.0 mm 0.00 in0.0 mm
02:40 PM 68.5°F20.3°C 55.8°F13.2°C 64% Calm Calm -- 30.46 in1031.5 mb - 0.00 in0.0 mm 0.00 in0.0 mm
02:30 PM 68.4°F20.2°C 55.7°F13.2°C 64% Calm Calm -- 30.46 in1031.5 mb - 0.00 in0.0 mm 0.00 in0.0 mm
02:20 PM 68.4°F20.2°C 54.9°F12.7°C 62% Calm Calm -- 30.47 in1031.8 mb - 0.00 in0.0 mm 0.00 in0.0 mm
02:10 PM 68.0°F20.0°C 55.8°F13.2°C 65% 1.2 mph ENE1.9 kmh ENE 3.5 mph5.6 kmh 30.47 in1031.8 mb - 0.00 in0.0 mm 0.00 in0.0 mm
02:00 PM 67.8°F19.9°C 55.6°F13.1°C 65% Calm Calm -- 30.47 in1031.8 mb - 0.00 in0.0 mm 0.00 in0.0 mm
01:50 PM 68.2°F20.1°C 54.3°F12.4°C 61% Calm Calm 1.2 mph1.9 kmh 30.48 in1032.2 mb - 0.00 in0.0 mm 0.00 in0.0 mm
01:40 PM 68.4°F20.2°C 54.9°F12.7°C 62% 1.2 mph ESE1.9 kmh ESE 3.5 mph5.6 kmh 30.48 in1032.2 mb - 0.00 in0.0 mm 0.00 in0.0 mm
01:30 PM 68.4°F20.2°C 55.3°F12.9°C 63% Calm Calm 2.3 mph3.7 kmh 30.48 in1032.2 mb - 0.00 in0.0 mm 0.00 in0.0 mm
01:20 PM 67.7°F19.8°C 56.3°F13.5°C 67% 1.2 mph ENE1.9 kmh ENE 1.2 mph1.9 kmh 30.48 in1032.2 mb - 0.00 in0.0 mm 0.00 in0.0 mm
01:10 PM 67.7°F19.8°C 55.9°F13.3°C 66% Calm Calm 1.2 mph1.9 kmh 30.49 in1032.5 mb - 0.00 in0.0 mm 0.00 in0.0 mm
01:00 PM 67.3°F19.6°C 55.6°F13.1°C 66% 2.3 mph E3.7 kmh E 6.9 mph11.1 kmh 30.49 in1032.5 mb - 0.00 in0.0 mm 0.00 in0.0 mm
12:50 PM 66.9°F19.4°C 56.0°F13.3°C 68% 4.6 mph NE7.4 kmh NE 6.9 mph11.1 kmh 30.49 in1032.5 mb - 0.00 in0.0 mm 0.00 in0.0 mm
12:40 PM 66.4°F19.1°C 55.9°F13.3°C 69% 1.2 mph ENE1.9 kmh ENE 4.6 mph7.4 kmh 30.50 in1032.8 mb - 0.00 in0.0 mm 0.00 in0.0 mm
12:30 PM 66.7°F19.3°C 55.4°F13.0°C 67% 1.2 mph ENE1.9 kmh ENE 3.5 mph5.6 kmh 30.51 in1033.2 mb - 0.00 in0.0 mm 0.00 in0.0 mm
12:20 PM 66.1°F18.9°C 54.8°F12.7°C 67% Calm Calm 5.8 mph9.3 kmh 30.51 in1033.2 mb - 0.00 in0.0 mm 0.00 in0.0 mm
12:10 PM 67.1°F19.5°C 54.5°F12.5°C 64% Calm Calm -- 30.52 in1033.5 mb - 0.00 in0.0 mm 0.00 in0.0 mm
12:00 PM 67.4°F19.7°C 54.8°F12.7°C 64% Calm Calm 1.2 mph1.9 kmh 30.52 in1033.5 mb - 0.00 in0.0 mm 0.00 in0.0 mm
11:50 AM 68.0°F20.0°C 55.4°F13.0°C 64% Calm Calm 3.5 mph5.6 kmh 30.52 in1033.5 mb - 0.00 in0.0 mm 0.00 in0.0 mm
11:40 AM 67.7°F19.8°C 56.3°F13.5°C 67% Calm Calm 3.5 mph5.6 kmh 30.53 in1033.9 mb - 0.00 in0.0 mm 0.00 in0.0 mm
11:30 AM 66.7°F19.3°C 56.2°F13.4°C 69% Calm Calm 1.2 mph1.9 kmh 30.53 in1033.9 mb - 0.00 in0.0 mm 0.00 in0.0 mm
11:20 AM 66.1°F18.9°C 56.1°F13.4°C 70% Calm Calm 1.2 mph1.9 kmh 30.53 in1033.9 mb - 0.00 in0.0 mm 0.00 in0.0 mm
11:10 AM 65.5°F18.6°C 55.5°F13.1°C 70% 2.3 mph S3.7 kmh S 6.9 mph11.1 kmh 30.53 in1033.9 mb - 0.00 in0.0 mm 0.00 in0.0 mm
11:00 AM 64.7°F18.2°C 55.5°F13.1°C 72% Calm Calm 3.5 mph5.6 kmh 30.53 in1033.9 mb - 0.00 in0.0 mm 0.00 in0.0 mm
10:50 AM 63.7°F17.6°C 54.1°F12.3°C 71% Calm Calm -- 30.54 in1034.2 mb - 0.00 in0.0 mm 0.00 in0.0 mm
10:40 AM 63.0°F17.2°C 54.6°F12.6°C 74% 1.2 mph SSE1.9 kmh SSE 8.1 mph13.0 kmh 30.54 in1034.2 mb - 0.00 in0.0 mm 0.00 in0.0 mm
10:30 AM 62.5°F16.9°C 55.2°F12.9°C 77% 5.8 mph S9.3 kmh S 5.8 mph9.3 kmh 30.53 in1033.9 mb - 0.00 in0.0 mm 0.00 in0.0 mm
10:20 AM 62.6°F17.0°C 54.9°F12.7°C 76% 4.6 mph SSW7.4 kmh SSW 3.5 mph5.6 kmh 30.53 in1033.9 mb - 0.00 in0.0 mm 0.00 in0.0 mm
10:10 AM 63.0°F17.2°C 54.6°F12.6°C 74% 2.3 mph SSW3.7 kmh SSW 3.5 mph5.6 kmh 30.53 in1033.9 mb - 0.00 in0.0 mm 0.00 in0.0 mm
10:00 AM 64.2°F17.9°C 55.4°F13.0°C 73% 1.2 mph S1.9 kmh S 3.5 mph5.6 kmh 30.54 in1034.2 mb - 0.00 in0.0 mm 0.00 in0.0 mm
09:50 AM 63.5°F17.5°C 55.1°F12.8°C 74% Calm Calm -- 30.54 in1034.2 mb - 0.00 in0.0 mm 0.00 in0.0 mm
09:40 AM 62.6°F17.0°C 53.4°F11.9°C 72% Calm Calm -- 30.54 in1034.2 mb - 0.00 in0.0 mm 0.00 in0.0 mm
09:30 AM 62.5°F16.9°C 53.7°F12.1°C 73% Calm Calm 2.3 mph3.7 kmh 30.54 in1034.2 mb - 0.00 in0.0 mm 0.00 in0.0 mm
09:20 AM 61.3°F16.3°C 51.8°F11.0°C 71% Calm Calm 2.3 mph3.7 kmh 30.54 in1034.2 mb - 0.00 in0.0 mm 0.00 in0.0 mm
09:10 AM 60.6°F15.9°C 52.7°F11.5°C 75% 3.5 mph S5.6 kmh S 3.5 mph5.6 kmh 30.54 in1034.2 mb - 0.00 in0.0 mm 0.00 in0.0 mm
09:00 AM 59.4°F15.2°C 52.9°F11.6°C 79% Calm Calm -- 30.54 in1034.2 mb - 0.00 in0.0 mm 0.00 in0.0 mm
08:50 AM 58.5°F14.7°C 52.4°F11.3°C 80% Calm Calm -- 30.54 in1034.2 mb - 0.00 in0.0 mm 0.00 in0.0 mm
08:40 AM 58.0°F14.4°C 52.2°F11.2°C 81% Calm Calm -- 30.54 in1034.2 mb - 0.00 in0.0 mm 0.00 in0.0 mm
08:30 AM 57.4°F14.1°C 51.6°F10.9°C 81% Calm Calm -- 30.54 in1034.2 mb - 0.00 in0.0 mm 0.00 in0.0 mm
08:20 AM 56.6°F13.7°C 51.5°F10.8°C 83% 1.2 mph SSE1.9 kmh SSE 3.5 mph5.6 kmh 30.53 in1033.9 mb - 0.00 in0.0 mm 0.00 in0.0 mm
08:10 AM 56.1°F13.4°C 51.0°F10.6°C 83% Calm Calm -- 30.53 in1033.9 mb - 0.00 in0.0 mm 0.00 in0.0 mm
08:00 AM 55.9°F13.3°C 50.8°F10.4°C 83% Calm Calm -- 30.53 in1033.9 mb - 0.00 in0.0 mm 0.00 in0.0 mm
07:50 AM 55.6°F13.1°C 50.9°F10.5°C 84% Calm Calm -- 30.53 in1033.9 mb - 0.00 in0.0 mm 0.00 in0.0 mm
07:40 AM 55.3°F12.9°C 50.5°F10.3°C 84% Calm Calm -- 30.53 in1033.9 mb - 0.00 in0.0 mm 0.00 in0.0 mm
07:30 AM 55.2°F12.9°C 50.2°F10.1°C 83% Calm Calm -- 30.52 in1033.5 mb - 0.00 in0.0 mm 0.00 in0.0 mm
07:20 AM 55.2°F12.9°C 50.1°F10.1°C 83% Calm Calm -- 30.52 in1033.5 mb - 0.00 in0.0 mm 0.00 in0.0 mm
07:10 AM 55.3°F12.9°C 50.2°F10.1°C 83% Calm Calm -- 30.52 in1033.5 mb - 0.00 in0.0 mm 0.00 in0.0 mm
07:00 AM 55.4°F13.0°C 50.3°F10.2°C 83% Calm Calm -- 30.52 in1033.5 mb - 0.00 in0.0 mm 0.00 in0.0 mm
06:50 AM 55.3°F12.9°C 50.5°F10.3°C 84% Calm Calm -- 30.52 in1033.5 mb - 0.00 in0.0 mm 0.00 in0.0 mm
06:40 AM 54.7°F12.6°C 50.3°F10.2°C 85% Calm Calm 1.2 mph1.9 kmh 30.52 in1033.5 mb - 0.00 in0.0 mm 0.00 in0.0 mm
06:30 AM 54.8°F12.7°C 50.4°F10.2°C 85% Calm Calm -- 30.52 in1033.5 mb - 0.00 in0.0 mm 0.00 in0.0 mm
06:20 AM 54.6°F12.6°C 50.5°F10.3°C 86% Calm Calm -- 30.51 in1033.2 mb - 0.00 in0.0 mm 0.00 in0.0 mm
06:10 AM 54.9°F12.7°C 50.5°F10.3°C 85% Calm Calm -- 30.52 in1033.5 mb - 0.00 in0.0 mm 0.00 in0.0 mm
06:00 AM 55.7°F13.2°C 50.9°F10.5°C 84% Calm Calm -- 30.52 in1033.5 mb - 0.00 in0.0 mm 0.00 in0.0 mm
05:50 AM 56.6°F13.7°C 51.8°F11.0°C 84% Calm Calm -- 30.52 in1033.5 mb - 0.00 in0.0 mm 0.00 in0.0 mm
05:40 AM 56.3°F13.5°C 51.8°F11.0°C 85% Calm Calm -- 30.51 in1033.2 mb - 0.00 in0.0 mm 0.00 in0.0 mm
05:30 AM 56.3°F13.5°C 52.2°F11.2°C 86% Calm Calm -- 30.51 in1033.2 mb - 0.00 in0.0 mm 0.00 in0.0 mm
05:20 AM 55.8°F13.2°C 51.6°F10.9°C 86% 1.2 mph S1.9 kmh S 1.2 mph1.9 kmh 30.52 in1033.5 mb - 0.00 in0.0 mm 0.00 in0.0 mm
05:10 AM 55.4°F13.0°C 51.5°F10.8°C 87% Calm Calm 1.2 mph1.9 kmh 30.52 in1033.5 mb - 0.00 in0.0 mm 0.00 in0.0 mm
05:00 AM 55.0°F12.8°C 51.2°F10.7°C 87% Calm Calm -- 30.52 in1033.5 mb - 0.00 in0.0 mm 0.00 in0.0 mm
04:50 AM 54.8°F12.7°C 51.0°F10.6°C 87% Calm Calm -- 30.52 in1033.5 mb - 0.00 in0.0 mm 0.00 in0.0 mm
04:40 AM 54.7°F12.6°C 50.9°F10.5°C 87% Calm Calm -- 30.52 in1033.5 mb - 0.00 in0.0 mm 0.00 in0.0 mm
04:30 AM 54.9°F12.7°C 51.1°F10.6°C 87% Calm Calm -- 30.52 in1033.5 mb - 0.00 in0.0 mm 0.00 in0.0 mm
04:20 AM 55.0°F12.8°C 50.9°F10.5°C 86% Calm Calm -- 30.52 in1033.5 mb - 0.00 in0.0 mm 0.00 in0.0 mm
04:10 AM 55.0°F12.8°C 51.2°F10.7°C 87% Calm Calm 2.3 mph3.7 kmh 30.52 in1033.5 mb - 0.00 in0.0 mm 0.00 in0.0 mm
04:00 AM 54.8°F12.7°C 51.0°F10.6°C 87% Calm Calm 1.2 mph1.9 kmh 30.52 in1033.5 mb - 0.00 in0.0 mm 0.00 in0.0 mm
03:50 AM 54.7°F12.6°C 50.6°F10.3°C 86% Calm Calm -- 30.52 in1033.5 mb - 0.00 in0.0 mm 0.00 in0.0 mm
03:40 AM 55.0°F12.8°C 50.6°F10.3°C 85% Calm Calm -- 30.52 in1033.5 mb - 0.00 in0.0 mm 0.00 in0.0 mm
03:30 AM 55.4°F13.0°C 51.0°F10.6°C 85% Calm Calm -- 30.53 in1033.9 mb - 0.00 in0.0 mm 0.00 in0.0 mm
03:20 AM 55.9°F13.3°C 51.1°F10.6°C 84% Calm Calm -- 30.53 in1033.9 mb - 0.00 in0.0 mm 0.00 in0.0 mm
03:10 AM 56.4°F13.6°C 51.7°F10.9°C 84% Calm Calm -- 30.53 in1033.9 mb - 0.00 in0.0 mm 0.00 in0.0 mm
03:00 AM 56.7°F13.7°C 51.9°F11.1°C 84% Calm Calm -- 30.53 in1033.9 mb - 0.00 in0.0 mm 0.00 in0.0 mm
02:50 AM 56.9°F13.8°C 51.8°F11.0°C 83% Calm Calm 1.2 mph1.9 kmh 30.53 in1033.9 mb - 0.00 in0.0 mm 0.00 in0.0 mm
02:40 AM 57.0°F13.9°C 51.8°F11.0°C 83% 3.5 mph S5.6 kmh S 6.9 mph11.1 kmh 30.54 in1034.2 mb - 0.00 in0.0 mm 0.00 in0.0 mm
02:30 AM 57.1°F13.9°C 51.7°F10.9°C 82% Calm Calm -- 30.54 in1034.2 mb - 0.00 in0.0 mm 0.00 in0.0 mm
02:20 AM 57.4°F14.1°C 51.9°F11.1°C 82% Calm Calm -- 30.54 in1034.2 mb - 0.00 in0.0 mm 0.00 in0.0 mm
02:10 AM 57.2°F14.0°C 51.8°F11.0°C 82% Calm Calm -- 30.54 in1034.2 mb - 0.00 in0.0 mm 0.00 in0.0 mm
02:00 AM 56.9°F13.8°C 51.5°F10.8°C 82% Calm Calm -- 30.54 in1034.2 mb - 0.00 in0.0 mm 0.00 in0.0 mm
01:50 AM 56.8°F13.8°C 51.4°F10.8°C 82% Calm Calm -- 30.54 in1034.2 mb - 0.00 in0.0 mm 0.00 in0.0 mm
01:40 AM 56.2°F13.4°C 51.4°F10.8°C 84% Calm Calm -- 30.54 in1034.2 mb - 0.00 in0.0 mm 0.00 in0.0 mm
01:30 AM 55.8°F13.2°C 51.0°F10.6°C 84% Calm Calm -- 30.54 in1034.2 mb - 0.00 in0.0 mm 0.00 in0.0 mm
01:20 AM 55.8°F13.2°C 51.3°F10.7°C 85% Calm Calm -- 30.55 in1034.5 mb - 0.00 in0.0 mm 0.00 in0.0 mm
01:10 AM 55.7°F13.2°C 51.6°F10.9°C 86% Calm Calm -- 30.55 in1034.5 mb - 0.00 in0.0 mm 0.00 in0.0 mm
01:00 AM 55.3°F12.9°C 51.5°F10.8°C 87% Calm Calm -- 30.55 in1034.5 mb - 0.00 in0.0 mm 0.00 in0.0 mm
12:50 AM 55.0°F12.8°C 50.9°F10.5°C 86% Calm Calm -- 30.55 in1034.5 mb - 0.00 in0.0 mm 0.00 in0.0 mm
12:40 AM 55.0°F12.8°C 50.9°F10.5°C 86% Calm Calm -- 30.55 in1034.5 mb - 0.00 in0.0 mm 0.00 in0.0 mm
12:30 AM 55.0°F12.8°C 50.9°F10.5°C 86% Calm Calm -- 30.55 in1034.5 mb - 0.00 in0.0 mm 0.00 in0.0 mm
12:20 AM 55.1°F12.8°C 51.0°F10.6°C 86% Calm Calm -- 30.55 in1034.5 mb - 0.00 in0.0 mm 0.00 in0.0 mm
12:10 AM 55.2°F12.9°C 51.1°F10.6°C 86% Calm Calm -- 30.55 in1034.5 mb - 0.00 in0.0 mm 0.00 in0.0 mm
12:00 AM 55.1°F12.8°C 51.0°F10.6°C 86% Calm Calm -- 30.55 in1034.5 mb - 0.00 in0.0 mm 0.00 in0.0 mm